ADDS METAR Data INFO
IDs: Format: Raw Decoded Include TAF

Data at: 0216 UTC 18 Jan 2018

KFYJ 180155Z AUTO 33006KT 10SM BKN021 OVC028 M04/M11 A3028 RMK AO2 T10411111
KFYJ 180135Z AUTO 34004KT 10SM OVC019 M04/M10 A3029 RMK AO2 T10451105
KFYJ 180115Z AUTO 33007KT 10SM OVC019 M04/M11 A3030 RMK AO2 T10421106
KFYJ 180055Z AUTO 32004KT 10SM BKN021 BKN028 OVC045 M04/M09 A3030 RMK AO2 T10451088
KFYJ 180035Z AUTO 32003KT 10SM SCT013 SCT020 OVC045 M05/M07 A3031 RMK AO2 T10501075
KFYJ 180015Z AUTO 34004KT 4SM BKN012 OVC017 M05/M07 A3031 RMK AO2 T10511069
KFYJ 172355Z AUTO 33006KT 290V020 3SM OVC008 M05/M07 A3030 RMK AO2 T10501070 11025 21050
KFYJ 172335Z AUTO 33008KT 280V350 4SM BKN010 OVC015 M04/M07 A3031 RMK AO2 T10451074
KFYJ 172315Z AUTO 34005KT 7SM SCT015 OVC024 M04/M09 A3031 RMK AO2 T10381093
KFYJ 172255Z AUTO 34008KT 310V010 10SM SCT024 BKN030 OVC042 M03/M11 A3030 RMK AO2 T10311112
KFYJ 172235Z AUTO 35006KT 10SM SCT030 BKN035 OVC042 M03/M11 A3029 RMK AO2 T10301106
KFYJ 172215Z AUTO 34007KT 10SM OVC032 M03/M10 A3029 RMK AO2 T10301101
KFYJ 172155Z AUTO 33005KT 10SM SCT030 BKN038 OVC044 M03/M09 A3029 RMK AO2 T10301094
KFYJ 172135Z AUTO 32004KT 10SM BKN042 M03/M08 A3030 RMK AO2 T10331084
KFYJ 172115Z AUTO 34004KT 10SM BKN028 BKN034 BKN042 M04/M07 A3030 RMK AO2 T10361071
KFYJ 172055Z AUTO 33009KT 10SM SCT013 BKN028 OVC035 M04/M08 A3030 RMK AO2 T10361076
KFYJ 172035Z AUTO 36007KT 4SM BKN015 OVC020 M04/M07 A3031 RMK AO2 T10371070
KFYJ 172015Z AUTO 34004KT 4SM OVC017 M04/M06 A3031 RMK AO2 T10361062
KFYJ 171955Z AUTO 34005KT 3SM OVC013 M04/M06 A3030 RMK AO2 T10361059
KFYJ 171935Z AUTO 35006KT 3SM BKN014 OVC018 M04/M06 A3032 RMK AO2 T10361058
KFYJ 171915Z AUTO 33006KT 2 1/2SM OVC011 M03/M05 A3032 RMK AO2 T10321054
KFYJ 171855Z AUTO 34006KT 3SM OVC011 M03/M05 A3032 RMK AO2 T10301050
KFYJ 171835Z AUTO 34005KT 2SM OVC013 M03/M05 A3032 RMK AO2 T10301050
KFYJ 171815Z AUTO 34005KT 3SM OVC013 M03/M05 A3033 RMK AO2 T10291051
KFYJ 171755Z AUTO 33006KT 3SM OVC014 M02/M05 A3033 RMK AO2 T10251052 10003 21025
KFYJ 171735Z AUTO 33006KT 3SM OVC014 M02/M05 A3034 RMK AO2 T10251050
KFYJ 171715Z AUTO 34006KT 3SM OVC014 M02/M05 A3035 RMK AO2 T10221046
KFYJ 171655Z AUTO 36007KT 310V010 4SM BKN016 OVC026 M02/M05 A3037 RMK AO2 T10181048
KFYJ 171635Z AUTO 34006KT 7SM SCT016 OVC027 M02/M05 A3037 RMK AO2 T10181050
KFYJ 171615Z AUTO 34009G15KT 300V360 5SM OVC018 M02/M05 A3037 RMK AO2 T10171050
KFYJ 171555Z AUTO 36009G14KT 7SM SCT020 BKN026 OVC036 M02/M05 A3038 RMK AO2 T10161050
KFYJ 171535Z AUTO 36006KT 10SM SCT014 OVC036 M01/M04 A3039 RMK AO2 T10141043
KFYJ 171515Z AUTO 35007G17KT 10SM SCT010 SCT013 OVC036 M01/M04 A3038 RMK AO2 T10131041
KFYJ 171455Z AUTO 35007KT 4SM BKN013 OVC028 M01/M03 A3038 RMK AO2 T10101030
KFYJ 171435Z AUTO 34008G15KT 310V020 2 1/2SM OVC013 M01/M02 A3037 RMK AO2 T10071022
KFYJ 171415Z AUTO 36007KT 4SM OVC013 00/M02 A3037 RMK AO2 T10031021
KFYJ 171355Z AUTO 36006KT 4SM OVC011 00/M02 A3036 RMK AO2 T10011020
KFYJ 171335Z AUTO 35007KT 5SM OVC011 00/M02 A3036 RMK AO2 T00001018
KFYJ 171315Z AUTO 35006KT 7SM OVC011 00/M02 A3034 RMK AO2 T00001018
KFYJ 171255Z AUTO 35007KT 10SM BKN011 BKN047 BKN090 00/M02 A3034 RMK AO2 T00011019
KFYJ 171235Z AUTO 35005KT 10SM SCT011 SCT065 BKN090 00/M02 A3034 RMK AO2 T00011019
KFYJ 171215Z AUTO 35005KT 10SM BKN011 BKN065 OVC090 00/M02 A3034 RMK AO2 T00031016
KFYJ 171155Z AUTO 36005KT 10SM SCT011 BKN065 BKN090 00/M01 A3034 RMK AO2 T00031015 10008 21012
KFYJ 171135Z AUTO 34004KT 10SM SCT090 00/M01 A3033 RMK AO2 T00031012
KFYJ 171115Z AUTO 33004KT 10SM SCT090 00/M01 A3033 RMK AO2 T00031012
KFYJ 171055Z AUTO 00000KT 10SM CLR 00/M02 A3033 RMK AO2 T00001016
KFYJ 171035Z AUTO 00000KT 10SM CLR 00/M02 A3033 RMK AO2 T00001017
KFYJ 171015Z AUTO 00000KT 10SM CLR 00/M02 A3033 RMK AO2 T00021017
KFYJ 170955Z AUTO 00000KT 10SM CLR 00/M01 A3032 RMK AO2 T00031015
KFYJ 170935Z AUTO 00000KT 10SM BKN095 01/M01 A3032 RMK AO2 T00071015
KFYJ 170915Z AUTO 00000KT 10SM OVC095 01/M01 A3032 RMK AO2 T00081013
KFYJ 170855Z AUTO 00000KT 10SM OVC095 00/M01 A3031 RMK AO2 T00021008
KFYJ 170835Z AUTO 00000KT 10SM OVC085 00/M01 A3032 RMK AO2 T00001008
KFYJ 170815Z AUTO 00000KT 10SM OVC085 00/M01 A3032 RMK AO2 T00001008
KFYJ 170755Z AUTO 00000KT 10SM OVC085 00/M01 A3032 RMK AO2 T10011010
KFYJ 170735Z AUTO 00000KT 10SM BKN085 00/M01 A3032 RMK AO2 T10051012
KFYJ 170715Z AUTO 00000KT 10SM SCT085 00/M01 A3031 RMK AO2 T10051013
KFYJ 170655Z AUTO 00000KT 10SM CLR 00/M01 A3031 RMK AO2 T10051012
KFYJ 170635Z AUTO 00000KT 10SM CLR M01/M02 A3032 RMK AO2 T10101020
KFYJ 170615Z AUTO 00000KT 10SM SCT080 SCT100 M01/M02 A3031 RMK AO2 T10101019
KFYJ 170555Z AUTO 00000KT 10SM SCT080 SCT110 M01/M02 A3032 RMK AO2 T10101019 10008 21022 400701022
KFYJ 170535Z AUTO 00000KT 10SM BKN110 M01/M02 A3033 RMK AO2 T10081017
KFYJ 170515Z AUTO 00000KT 10SM SCT110 M01/M02 A3033 RMK AO2 T10091020
KFYJ 170455Z AUTO 00000KT 10SM SCT120 M01/M02 A3034 RMK AO2 T10081020
KFYJ 170435Z AUTO 00000KT 10SM SCT120 M01/M02 A3034 RMK AO2 T10131023
KFYJ 170415Z AUTO 00000KT 10SM CLR M01/M02 A3034 RMK AO2 T10111023
KFYJ 170355Z AUTO 00000KT 10SM SCT120 M01/M02 A3035 RMK AO2 T10111022
KFYJ 170335Z AUTO 00000KT 10SM BKN120 M01/M02 A3036 RMK AO2 T10101022
KFYJ 170315Z AUTO 00000KT 10SM BKN120 M01/M03 A3036 RMK AO2 T10121026
KFYJ 170255Z AUTO 00000KT 10SM CLR M02/M03 A3036 RMK AO2 T10181030
KFYJ 170235Z AUTO 00000KT 10SM CLR M02/M03 A3036 RMK AO2 T10171029
KFYJ 170215Z AUTO 00000KT 10SM CLR M02/M03 A3036 RMK AO2 T10191031
KFYJ 170150Z AUTO 00000KT 10SM CLR M01/M03 A3037 RMK AO2 T10101028
KFYJ 170135Z AUTO 00000KT 10SM CLR M02/M03 A3037 RMK AO2 T10211032
KFYJ 170115Z AUTO 00000KT 10SM CLR M01/M03 A3037 RMK AO2 T10101027
KFYJ 170055Z AUTO 00000KT 10SM CLR M01/M02 A3038 RMK AO2 T10071024
KFYJ 170035Z AUTO 00000KT 10SM CLR 00/M02 A3038 RMK AO2 T10051025
KFYJ 170015Z AUTO 00000KT 10SM CLR 00/M03 A3037 RMK AO2 T00001026
KFYJ 162355Z AUTO 00000KT 10SM CLR 01/M02 A3038 RMK AO2 T00101023 10070 20000
KFYJ 162335Z AUTO 00000KT 10SM CLR 00/M03 A3038 RMK AO2 T00001026
KFYJ 162315Z AUTO 00000KT 10SM CLR 01/M02 A3038 RMK AO2 T00091019
KFYJ 162255Z AUTO 00000KT 10SM CLR 02/M01 A3037 RMK AO2 T00151015
KFYJ 162235Z AUTO 00000KT 10SM CLR 03/M03 A3037 RMK AO2 T00281027
KFYJ 162215Z AUTO 00000KT 10SM CLR 04/M02 A3036 RMK AO2 T00391024
KFYJ 162155Z AUTO 00000KT 10SM CLR 05/M01 A3037 RMK AO2 T00501009
KFYJ 162135Z AUTO 00000KT 10SM CLR 06/M03 A3037 RMK AO2 T00591026
KFYJ 162115Z AUTO 00000KT 10SM CLR 07/M04 A3037 RMK AO2 T00661038
KFYJ 162055Z AUTO 00000KT 10SM CLR 07/M03 A3037 RMK AO2 T00661032
KFYJ 162030Z AUTO 00000KT 10SM CLR 07/M04 A3037 RMK AO2 T00671039
KFYJ 162015Z AUTO 00000KT 10SM CLR 07/M03 A3038 RMK AO2 T00691026
KFYJ 161955Z AUTO 00000KT 10SM CLR 07/M02 A3039 RMK AO2 T00661023
KFYJ 161935Z AUTO 00000KT 10SM CLR 06/M01 A3039 RMK AO2 T00641014
KFYJ 161915Z AUTO 00000KT 10SM CLR 06/M01 A3039 RMK AO2 T00581012
KFYJ 161855Z AUTO 00000KT 10SM CLR 06/M01 A3041 RMK AO2 T00551011
KFYJ 161835Z AUTO 25003KT 10SM CLR 06/M01 A3041 RMK AO2 T00551009
KFYJ 161815Z AUTO 00000KT 10SM CLR 05/M01 A3042 RMK AO2 T00501009
KFYJ 161755Z AUTO 00000KT 10SM CLR 04/M01 A3044 RMK AO2 T00421012 10042 21010
KFYJ 161735Z AUTO 00000KT 10SM CLR 04/M01 A3045 RMK AO2 T00361011
KFYJ 161715Z AUTO 25003KT 10SM CLR 03/M01 A3047 RMK AO2 T00311010
KFYJ 161655Z AUTO 24005KT 10SM CLR 03/M01 A3048 RMK AO2 T00251012
KFYJ 161635Z AUTO 00000KT 10SM CLR 02/M01 A3049 RMK AO2 T00221014
KFYJ 161615Z AUTO 23003KT 10SM CLR 02/M01 A3049 RMK AO2 T00191015
KFYJ 161555Z AUTO 27004KT 10SM SCT007 02/M01 A3050 RMK AO2 T00151014
KFYJ 161535Z AUTO 00000KT 10SM OVC007 00/M02 A3050 RMK AO2 T00001018
KFYJ 161515Z AUTO 00000KT 10SM OVC007 00/M02 A3051 RMK AO2 T00001018
KFYJ 161455Z AUTO 00000KT 10SM OVC005 00/M02 A3051 RMK AO2 T10021018
KFYJ 161435Z AUTO 00000KT 10SM OVC005 00/M02 A3051 RMK AO2 T10041017